sensor_id;sensor_type;location;lat;lon;timestamp;P1;durP1;ratioP1;P2;durP2;ratioP2
77591;SDS011;66891;46.884;17.436;2023-02-25T00:00:06;19.80;;;7.13;;
77591;SDS011;66891;46.884;17.436;2023-02-25T00:02:43;17.42;;;7.43;;
77591;SDS011;66891;46.884;17.436;2023-02-25T00:05:10;19.20;;;7.45;;
77591;SDS011;66891;46.884;17.436;2023-02-25T00:07:37;19.63;;;7.93;;
77591;SDS011;66891;46.884;17.436;2023-02-25T00:10:05;19.67;;;7.73;;
77591;SDS011;66891;46.884;17.436;2023-02-25T00:12:34;20.00;;;8.10;;
77591;SDS011;66891;46.884;17.436;2023-02-25T00:15:01;21.75;;;8.05;;
77591;SDS011;66891;46.884;17.436;2023-02-25T00:17:28;20.33;;;7.35;;
77591;SDS011;66891;46.884;17.436;2023-02-25T00:19:56;17.60;;;7.10;;
77591;SDS011;66891;46.884;17.436;2023-02-25T00:22:23;19.13;;;7.10;;
77591;SDS011;66891;46.884;17.436;2023-02-25T00:24:51;17.77;;;7.68;;
77591;SDS011;66891;46.884;17.436;2023-02-25T00:27:19;17.23;;;7.10;;
77591;SDS011;66891;46.884;17.436;2023-02-25T00:29:50;18.55;;;6.95;;
77591;SDS011;66891;46.884;17.436;2023-02-25T00:32:17;19.27;;;7.07;;
77591;SDS011;66891;46.884;17.436;2023-02-25T00:34:44;21.53;;;7.30;;
77591;SDS011;66891;46.884;17.436;2023-02-25T00:37:12;18.17;;;7.63;;
77591;SDS011;66891;46.884;17.436;2023-02-25T00:39:39;17.27;;;6.60;;
77591;SDS011;66891;46.884;17.436;2023-02-25T00:42:09;19.42;;;6.93;;
77591;SDS011;66891;46.884;17.436;2023-02-25T00:44:36;18.05;;;6.93;;
77591;SDS011;66891;46.884;17.436;2023-02-25T00:47:05;20.23;;;6.80;;
77591;SDS011;66891;46.884;17.436;2023-02-25T00:49:32;18.27;;;7.13;;
77591;SDS011;66891;46.884;17.436;2023-02-25T00:52:00;17.83;;;7.13;;
77591;SDS011;66891;46.884;17.436;2023-02-25T00:54:27;19.23;;;7.68;;
77591;SDS011;66891;46.884;17.436;2023-02-25T00:56:54;18.83;;;7.03;;
77591;SDS011;66891;46.884;17.436;2023-02-25T00:59:21;19.77;;;7.20;;
77591;SDS011;66891;46.884;17.436;2023-02-25T01:01:48;19.52;;;7.65;;
77591;SDS011;66891;46.884;17.436;2023-02-25T01:04:17;17.63;;;6.40;;
77591;SDS011;66891;46.884;17.436;2023-02-25T01:06:44;19.08;;;6.70;;
77591;SDS011;66891;46.884;17.436;2023-02-25T01:09:11;17.90;;;6.28;;
77591;SDS011;66891;46.884;17.436;2023-02-25T01:11:40;17.83;;;6.50;;
77591;SDS011;66891;46.884;17.436;2023-02-25T01:14:10;16.45;;;6.63;;
77591;SDS011;66891;46.884;17.436;2023-02-25T01:16:37;17.23;;;5.78;;
77591;SDS011;66891;46.884;17.436;2023-02-25T01:19:06;18.02;;;6.00;;
77591;SDS011;66891;46.884;17.436;2023-02-25T01:21:35;16.52;;;5.68;;
77591;SDS011;66891;46.884;17.436;2023-02-25T01:24:03;19.70;;;6.07;;
77591;SDS011;66891;46.884;17.436;2023-02-25T01:26:32;15.52;;;5.80;;
77591;SDS011;66891;46.884;17.436;2023-02-25T01:28:59;19.67;;;6.32;;
77591;SDS011;66891;46.884;17.436;2023-02-25T01:31:29;16.40;;;5.75;;
77591;SDS011;66891;46.884;17.436;2023-02-25T01:33:57;17.92;;;6.30;;
77591;SDS011;66891;46.884;17.436;2023-02-25T01:36:25;16.03;;;5.70;;
77591;SDS011;66891;46.884;17.436;2023-02-25T01:38:54;17.95;;;6.22;;
77591;SDS011;66891;46.884;17.436;2023-02-25T01:41:22;16.77;;;5.80;;
77591;SDS011;66891;46.884;17.436;2023-02-25T01:46:34;16.83;;;5.93;;
77591;SDS011;66891;46.884;17.436;2023-02-25T01:49:02;16.50;;;5.83;;
77591;SDS011;66891;46.884;17.436;2023-02-25T01:51:32;15.90;;;5.53;;
77591;SDS011;66891;46.884;17.436;2023-02-25T01:54:01;18.85;;;5.07;;
77591;SDS011;66891;46.884;17.436;2023-02-25T01:56:30;16.83;;;5.55;;
77591;SDS011;66891;46.884;17.436;2023-02-25T01:58:57;21.23;;;5.50;;
77591;SDS011;66891;46.884;17.436;2023-02-25T02:01:25;19.37;;;6.37;;
77591;SDS011;66891;46.884;17.436;2023-02-25T02:03:54;17.05;;;5.32;;
77591;SDS011;66891;46.884;17.436;2023-02-25T02:06:22;15.25;;;5.13;;
77591;SDS011;66891;46.884;17.436;2023-02-25T02:08:51;15.90;;;5.68;;
77591;SDS011;66891;46.884;17.436;2023-02-25T02:11:19;16.42;;;5.45;;
77591;SDS011;66891;46.884;17.436;2023-02-25T02:13:47;17.83;;;5.67;;
77591;SDS011;66891;46.884;17.436;2023-02-25T02:16:21;17.30;;;5.35;;
77591;SDS011;66891;46.884;17.436;2023-02-25T02:18:53;19.48;;;5.28;;
77591;SDS011;66891;46.884;17.436;2023-02-25T02:21:28;16.10;;;5.47;;
77591;SDS011;66891;46.884;17.436;2023-02-25T02:24:15;15.82;;;6.07;;
77591;SDS011;66891;46.884;17.436;2023-02-25T02:26:52;18.53;;;5.87;;
77591;SDS011;66891;46.884;17.436;2023-02-25T02:32:15;18.58;;;6.03;;
77591;SDS011;66891;46.884;17.436;2023-02-25T02:34:48;15.98;;;5.65;;
77591;SDS011;66891;46.884;17.436;2023-02-25T02:37:24;16.33;;;5.45;;
77591;SDS011;66891;46.884;17.436;2023-02-25T02:39:56;20.27;;;6.23;;
77591;SDS011;66891;46.884;17.436;2023-02-25T02:42:34;18.27;;;6.07;;
77591;SDS011;66891;46.884;17.436;2023-02-25T02:45:03;19.17;;;5.97;;
77591;SDS011;66891;46.884;17.436;2023-02-25T02:47:33;18.70;;;5.85;;
77591;SDS011;66891;46.884;17.436;2023-02-25T02:50:02;19.02;;;5.97;;
77591;SDS011;66891;46.884;17.436;2023-02-25T02:52:31;18.43;;;6.03;;
77591;SDS011;66891;46.884;17.436;2023-02-25T02:54:59;17.83;;;5.97;;
77591;SDS011;66891;46.884;17.436;2023-02-25T02:57:28;19.67;;;6.50;;
77591;SDS011;66891;46.884;17.436;2023-02-25T02:59:57;17.08;;;6.20;;
77591;SDS011;66891;46.884;17.436;2023-02-25T03:02:25;19.95;;;5.93;;
77591;SDS011;66891;46.884;17.436;2023-02-25T03:04:56;21.57;;;5.80;;
77591;SDS011;66891;46.884;17.436;2023-02-25T03:07:25;16.27;;;5.35;;
77591;SDS011;66891;46.884;17.436;2023-02-25T03:09:53;15.07;;;5.70;;
77591;SDS011;66891;46.884;17.436;2023-02-25T03:12:21;15.55;;;5.50;;
77591;SDS011;66891;46.884;17.436;2023-02-25T03:14:48;16.92;;;5.82;;
77591;SDS011;66891;46.884;17.436;2023-02-25T03:17:15;15.83;;;5.43;;
77591;SDS011;66891;46.884;17.436;2023-02-25T03:19:46;18.08;;;5.90;;
77591;SDS011;66891;46.884;17.436;2023-02-25T03:22:17;17.85;;;6.25;;
77591;SDS011;66891;46.884;17.436;2023-02-25T03:24:47;18.23;;;5.63;;
77591;SDS011;66891;46.884;17.436;2023-02-25T03:27:25;17.15;;;5.82;;
77591;SDS011;66891;46.884;17.436;2023-02-25T03:29:53;18.40;;;5.60;;
77591;SDS011;66891;46.884;17.436;2023-02-25T03:32:23;16.45;;;5.97;;
77591;SDS011;66891;46.884;17.436;2023-02-25T03:34:50;20.45;;;6.93;;
77591;SDS011;66891;46.884;17.436;2023-02-25T03:37:20;18.60;;;5.88;;
77591;SDS011;66891;46.884;17.436;2023-02-25T03:39:49;18.13;;;6.15;;
77591;SDS011;66891;46.884;17.436;2023-02-25T03:42:19;18.70;;;5.93;;
77591;SDS011;66891;46.884;17.436;2023-02-25T03:44:48;16.98;;;5.70;;
77591;SDS011;66891;46.884;17.436;2023-02-25T03:47:16;15.13;;;5.40;;
77591;SDS011;66891;46.884;17.436;2023-02-25T03:49:45;17.50;;;5.43;;
77591;SDS011;66891;46.884;17.436;2023-02-25T03:52:14;15.57;;;5.00;;
77591;SDS011;66891;46.884;17.436;2023-02-25T03:54:47;14.73;;;5.27;;
77591;SDS011;66891;46.884;17.436;2023-02-25T03:57:14;14.77;;;5.30;;
77591;SDS011;66891;46.884;17.436;2023-02-25T03:59:42;15.20;;;5.20;;
77591;SDS011;66891;46.884;17.436;2023-02-25T04:02:09;17.55;;;5.43;;
77591;SDS011;66891;46.884;17.436;2023-02-25T04:04:36;14.10;;;5.05;;
77591;SDS011;66891;46.884;17.436;2023-02-25T04:07:03;15.43;;;5.60;;
77591;SDS011;66891;46.884;17.436;2023-02-25T04:09:31;14.52;;;4.80;;
77591;SDS011;66891;46.884;17.436;2023-02-25T04:11:59;15.00;;;5.55;;
77591;SDS011;66891;46.884;17.436;2023-02-25T04:14:26;16.30;;;5.30;;
77591;SDS011;66891;46.884;17.436;2023-02-25T04:16:54;15.45;;;5.68;;
77591;SDS011;66891;46.884;17.436;2023-02-25T04:19:21;15.80;;;4.83;;
77591;SDS011;66891;46.884;17.436;2023-02-25T04:21:48;15.45;;;5.38;;
77591;SDS011;66891;46.884;17.436;2023-02-25T04:24:15;15.20;;;5.32;;
77591;SDS011;66891;46.884;17.436;2023-02-25T04:26:42;15.82;;;6.20;;
77591;SDS011;66891;46.884;17.436;2023-02-25T04:29:10;16.67;;;6.13;;
77591;SDS011;66891;46.884;17.436;2023-02-25T04:31:37;16.17;;;5.80;;
77591;SDS011;66891;46.884;17.436;2023-02-25T04:34:04;18.20;;;5.45;;
77591;SDS011;66891;46.884;17.436;2023-02-25T04:36:32;17.83;;;5.03;;
77591;SDS011;66891;46.884;17.436;2023-02-25T04:39:00;13.48;;;4.60;;
77591;SDS011;66891;46.884;17.436;2023-02-25T04:41:29;19.27;;;5.03;;
77591;SDS011;66891;46.884;17.436;2023-02-25T04:43:57;18.40;;;5.53;;
77591;SDS011;66891;46.884;17.436;2023-02-25T04:46:28;18.60;;;5.60;;
77591;SDS011;66891;46.884;17.436;2023-02-25T04:48:55;20.25;;;6.22;;
77591;SDS011;66891;46.884;17.436;2023-02-25T04:51:22;17.13;;;4.80;;
77591;SDS011;66891;46.884;17.436;2023-02-25T04:53:49;21.20;;;6.85;;
77591;SDS011;66891;46.884;17.436;2023-02-25T04:56:16;22.33;;;6.63;;
77591;SDS011;66891;46.884;17.436;2023-02-25T04:58:43;16.70;;;5.82;;
77591;SDS011;66891;46.884;17.436;2023-02-25T05:01:11;16.95;;;5.90;;
77591;SDS011;66891;46.884;17.436;2023-02-25T05:03:40;19.58;;;5.60;;
77591;SDS011;66891;46.884;17.436;2023-02-25T05:06:07;16.60;;;5.32;;
77591;SDS011;66891;46.884;17.436;2023-02-25T05:08:34;13.93;;;5.17;;
77591;SDS011;66891;46.884;17.436;2023-02-25T05:11:02;18.10;;;5.00;;
77591;SDS011;66891;46.884;17.436;2023-02-25T05:13:29;17.27;;;4.65;;
77591;SDS011;66891;46.884;17.436;2023-02-25T05:16:03;10.80;;;3.47;;
77591;SDS011;66891;46.884;17.436;2023-02-25T05:18:33;12.27;;;3.60;;
77591;SDS011;66891;46.884;17.436;2023-02-25T05:21:02;13.37;;;3.17;;
77591;SDS011;66891;46.884;17.436;2023-02-25T05:23:29;13.38;;;3.45;;
77591;SDS011;66891;46.884;17.436;2023-02-25T05:25:56;9.85;;;2.83;;
77591;SDS011;66891;46.884;17.436;2023-02-25T05:28:25;12.50;;;2.92;;
77591;SDS011;66891;46.884;17.436;2023-02-25T05:30:52;11.93;;;3.33;;
77591;SDS011;66891;46.884;17.436;2023-02-25T05:33:21;10.77;;;2.77;;
77591;SDS011;66891;46.884;17.436;2023-02-25T05:35:49;10.18;;;1.88;;
77591;SDS011;66891;46.884;17.436;2023-02-25T05:38:18;7.07;;;1.00;;
77591;SDS011;66891;46.884;17.436;2023-02-25T05:40:45;6.63;;;1.08;;
77591;SDS011;66891;46.884;17.436;2023-02-25T05:43:12;7.18;;;1.48;;
77591;SDS011;66891;46.884;17.436;2023-02-25T05:45:39;5.77;;;0.80;;
77591;SDS011;66891;46.884;17.436;2023-02-25T05:48:06;6.20;;;0.75;;
77591;SDS011;66891;46.884;17.436;2023-02-25T05:50:33;6.63;;;0.70;;
77591;SDS011;66891;46.884;17.436;2023-02-25T05:53:07;4.45;;;0.50;;
77591;SDS011;66891;46.884;17.436;2023-02-25T05:55:40;2.90;;;0.30;;
77591;SDS011;66891;46.884;17.436;2023-02-25T05:58:08;2.25;;;0.20;;
77591;SDS011;66891;46.884;17.436;2023-02-25T06:00:35;3.38;;;0.30;;
77591;SDS011;66891;46.884;17.436;2023-02-25T06:03:02;4.07;;;0.30;;
77591;SDS011;66891;46.884;17.436;2023-02-25T06:05:30;3.08;;;0.20;;
77591;SDS011;66891;46.884;17.436;2023-02-25T06:07:58;2.67;;;0.20;;
77591;SDS011;66891;46.884;17.436;2023-02-25T06:10:25;1.80;;;0.20;;
77591;SDS011;66891;46.884;17.436;2023-02-25T06:12:54;2.08;;;0.20;;
77591;SDS011;66891;46.884;17.436;2023-02-25T06:15:21;2.17;;;0.20;;
77591;SDS011;66891;46.884;17.436;2023-02-25T06:17:49;1.23;;;0.20;;
77591;SDS011;66891;46.884;17.436;2023-02-25T06:20:16;1.27;;;0.20;;
77591;SDS011;66891;46.884;17.436;2023-02-25T06:22:43;1.93;;;0.20;;
77591;SDS011;66891;46.884;17.436;2023-02-25T06:25:10;1.48;;;0.20;;
77591;SDS011;66891;46.884;17.436;2023-02-25T06:27:37;1.20;;;0.20;;
77591;SDS011;66891;46.884;17.436;2023-02-25T06:30:07;1.65;;;0.20;;
77591;SDS011;66891;46.884;17.436;2023-02-25T06:32:34;1.17;;;0.10;;
77591;SDS011;66891;46.884;17.436;2023-02-25T06:35:01;2.50;;;0.20;;
77591;SDS011;66891;46.884;17.436;2023-02-25T06:37:28;2.13;;;0.20;;
77591;SDS011;66891;46.884;17.436;2023-02-25T06:39:55;1.58;;;0.10;;
77591;SDS011;66891;46.884;17.436;2023-02-25T06:42:23;2.70;;;0.20;;
77591;SDS011;66891;46.884;17.436;2023-02-25T06:44:50;2.40;;;0.20;;
77591;SDS011;66891;46.884;17.436;2023-02-25T06:47:20;1.90;;;0.20;;
77591;SDS011;66891;46.884;17.436;2023-02-25T06:49:47;2.00;;;0.10;;
77591;SDS011;66891;46.884;17.436;2023-02-25T06:52:14;3.95;;;0.30;;
77591;SDS011;66891;46.884;17.436;2023-02-25T06:54:43;4.40;;;0.40;;
77591;SDS011;66891;46.884;17.436;2023-02-25T06:57:10;4.30;;;0.50;;
77591;SDS011;66891;46.884;17.436;2023-02-25T06:59:37;4.32;;;0.55;;
77591;SDS011;66891;46.884;17.436;2023-02-25T07:02:04;2.85;;;0.30;;
77591;SDS011;66891;46.884;17.436;2023-02-25T07:04:33;4.78;;;0.30;;
77591;SDS011;66891;46.884;17.436;2023-02-25T07:07:00;3.50;;;0.30;;
77591;SDS011;66891;46.884;17.436;2023-02-25T07:09:27;4.22;;;0.30;;
77591;SDS011;66891;46.884;17.436;2023-02-25T07:11:54;3.67;;;0.30;;
77591;SDS011;66891;46.884;17.436;2023-02-25T07:14:22;4.65;;;0.50;;
77591;SDS011;66891;46.884;17.436;2023-02-25T07:16:49;5.15;;;0.50;;
77591;SDS011;66891;46.884;17.436;2023-02-25T07:19:16;4.70;;;0.40;;
77591;SDS011;66891;46.884;17.436;2023-02-25T07:21:45;6.93;;;0.80;;
77591;SDS011;66891;46.884;17.436;2023-02-25T07:24:13;3.27;;;0.30;;
77591;SDS011;66891;46.884;17.436;2023-02-25T07:26:40;7.22;;;0.80;;
77591;SDS011;66891;46.884;17.436;2023-02-25T07:29:07;7.18;;;0.40;;
77591;SDS011;66891;46.884;17.436;2023-02-25T07:31:35;6.40;;;0.80;;
77591;SDS011;66891;46.884;17.436;2023-02-25T07:34:02;9.23;;;1.00;;
77591;SDS011;66891;46.884;17.436;2023-02-25T07:36:30;5.78;;;0.85;;
77591;SDS011;66891;46.884;17.436;2023-02-25T07:39:00;7.00;;;0.65;;
77591;SDS011;66891;46.884;17.436;2023-02-25T07:41:27;5.20;;;0.50;;
77591;SDS011;66891;46.884;17.436;2023-02-25T07:43:55;2.50;;;0.25;;
77591;SDS011;66891;46.884;17.436;2023-02-25T07:46:22;1.73;;;0.20;;
77591;SDS011;66891;46.884;17.436;2023-02-25T07:48:49;1.80;;;0.20;;
77591;SDS011;66891;46.884;17.436;2023-02-25T07:51:17;3.67;;;0.30;;
77591;SDS011;66891;46.884;17.436;2023-02-25T07:53:45;4.97;;;0.30;;
77591;SDS011;66891;46.884;17.436;2023-02-25T07:56:14;5.13;;;0.47;;
77591;SDS011;66891;46.884;17.436;2023-02-25T07:58:41;4.82;;;0.60;;
77591;SDS011;66891;46.884;17.436;2023-02-25T08:01:09;3.55;;;0.47;;
77591;SDS011;66891;46.884;17.436;2023-02-25T08:03:36;5.00;;;0.50;;
77591;SDS011;66891;46.884;17.436;2023-02-25T08:06:04;2.83;;;0.25;;
77591;SDS011;66891;46.884;17.436;2023-02-25T08:08:34;2.28;;;0.20;;
77591;SDS011;66891;46.884;17.436;2023-02-25T08:11:03;1.95;;;0.20;;
77591;SDS011;66891;46.884;17.436;2023-02-25T08:13:32;2.90;;;0.30;;
77591;SDS011;66891;46.884;17.436;2023-02-25T08:15:59;4.25;;;0.30;;
77591;SDS011;66891;46.884;17.436;2023-02-25T08:18:29;4.03;;;0.30;;
77591;SDS011;66891;46.884;17.436;2023-02-25T08:20:56;2.10;;;0.20;;
77591;SDS011;66891;46.884;17.436;2023-02-25T08:23:24;4.20;;;0.20;;
77591;SDS011;66891;46.884;17.436;2023-02-25T08:25:51;2.95;;;0.25;;
77591;SDS011;66891;46.884;17.436;2023-02-25T08:28:19;4.07;;;0.30;;
77591;SDS011;66891;46.884;17.436;2023-02-25T08:30:48;1.67;;;0.20;;
77591;SDS011;66891;46.884;17.436;2023-02-25T08:33:15;3.72;;;0.30;;
77591;SDS011;66891;46.884;17.436;2023-02-25T08:35:42;3.77;;;0.30;;
77591;SDS011;66891;46.884;17.436;2023-02-25T08:38:10;6.90;;;1.00;;
77591;SDS011;66891;46.884;17.436;2023-02-25T08:40:38;6.32;;;0.90;;
77591;SDS011;66891;46.884;17.436;2023-02-25T08:43:05;6.10;;;0.90;;
77591;SDS011;66891;46.884;17.436;2023-02-25T08:45:33;5.65;;;0.80;;
77591;SDS011;66891;46.884;17.436;2023-02-25T08:48:01;5.22;;;0.65;;
77591;SDS011;66891;46.884;17.436;2023-02-25T08:50:28;4.80;;;0.55;;
77591;SDS011;66891;46.884;17.436;2023-02-25T08:52:56;6.88;;;1.58;;
77591;SDS011;66891;46.884;17.436;2023-02-25T08:55:23;5.63;;;1.00;;
77591;SDS011;66891;46.884;17.436;2023-02-25T08:57:50;6.43;;;1.63;;
77591;SDS011;66891;46.884;17.436;2023-02-25T09:00:17;16.50;;;7.35;;
77591;SDS011;66891;46.884;17.436;2023-02-25T09:02:45;15.63;;;6.80;;
77591;SDS011;66891;46.884;17.436;2023-02-25T09:05:13;12.43;;;4.07;;
77591;SDS011;66891;46.884;17.436;2023-02-25T09:07:40;13.75;;;5.68;;
77591;SDS011;66891;46.884;17.436;2023-02-25T09:10:08;14.93;;;7.18;;
77591;SDS011;66891;46.884;17.436;2023-02-25T09:12:37;14.18;;;4.90;;
77591;SDS011;66891;46.884;17.436;2023-02-25T09:15:04;12.37;;;5.90;;
77591;SDS011;66891;46.884;17.436;2023-02-25T09:17:32;13.15;;;4.93;;
77591;SDS011;66891;46.884;17.436;2023-02-25T09:19:59;13.40;;;4.70;;
77591;SDS011;66891;46.884;17.436;2023-02-25T09:22:29;11.27;;;4.05;;
77591;SDS011;66891;46.884;17.436;2023-02-25T09:24:58;11.55;;;4.03;;
77591;SDS011;66891;46.884;17.436;2023-02-25T09:27:26;13.77;;;5.00;;
77591;SDS011;66891;46.884;17.436;2023-02-25T09:29:52;14.63;;;6.18;;
77591;SDS011;66891;46.884;17.436;2023-02-25T09:32:20;9.98;;;4.07;;
77591;SDS011;66891;46.884;17.436;2023-02-25T09:34:47;13.27;;;6.75;;
77591;SDS011;66891;46.884;17.436;2023-02-25T09:37:15;10.50;;;4.88;;
77591;SDS011;66891;46.884;17.436;2023-02-25T09:39:43;11.33;;;4.13;;
77591;SDS011;66891;46.884;17.436;2023-02-25T09:42:12;16.42;;;5.55;;
77591;SDS011;66891;46.884;17.436;2023-02-25T09:44:43;25.38;;;7.60;;
77591;SDS011;66891;46.884;17.436;2023-02-25T09:47:12;30.60;;;11.68;;
77591;SDS011;66891;46.884;17.436;2023-02-25T09:49:43;32.08;;;13.77;;
77591;SDS011;66891;46.884;17.436;2023-02-25T09:52:13;12.55;;;4.75;;
77591;SDS011;66891;46.884;17.436;2023-02-25T09:54:46;15.70;;;5.63;;
77591;SDS011;66891;46.884;17.436;2023-02-25T09:57:15;13.88;;;5.75;;
77591;SDS011;66891;46.884;17.436;2023-02-25T09:59:44;14.43;;;6.05;;
77591;SDS011;66891;46.884;17.436;2023-02-25T10:02:20;12.88;;;5.70;;
77591;SDS011;66891;46.884;17.436;2023-02-25T10:04:50;13.10;;;5.83;;
77591;SDS011;66891;46.884;17.436;2023-02-25T10:07:23;11.27;;;4.80;;
77591;SDS011;66891;46.884;17.436;2023-02-25T10:09:54;10.68;;;4.53;;
77591;SDS011;66891;46.884;17.436;2023-02-25T10:12:26;8.70;;;2.95;;
77591;SDS011;66891;46.884;17.436;2023-02-25T10:15:04;8.70;;;3.03;;
77591;SDS011;66891;46.884;17.436;2023-02-25T10:17:35;8.70;;;2.90;;
77591;SDS011;66891;46.884;17.436;2023-02-25T10:20:28;9.18;;;3.30;;
77591;SDS011;66891;46.884;17.436;2023-02-25T10:23:01;7.97;;;2.70;;
77591;SDS011;66891;46.884;17.436;2023-02-25T10:25:34;7.82;;;2.17;;
77591;SDS011;66891;46.884;17.436;2023-02-25T10:28:03;7.68;;;2.10;;
77591;SDS011;66891;46.884;17.436;2023-02-25T10:30:34;10.17;;;3.30;;
77591;SDS011;66891;46.884;17.436;2023-02-25T10:33:02;8.15;;;2.30;;
77591;SDS011;66891;46.884;17.436;2023-02-25T10:35:31;7.78;;;2.88;;
77591;SDS011;66891;46.884;17.436;2023-02-25T10:38:00;7.82;;;2.25;;
77591;SDS011;66891;46.884;17.436;2023-02-25T10:40:28;9.48;;;1.80;;
77591;SDS011;66891;46.884;17.436;2023-02-25T10:42:58;8.35;;;2.40;;
77591;SDS011;66891;46.884;17.436;2023-02-25T10:45:25;8.13;;;2.25;;
77591;SDS011;66891;46.884;17.436;2023-02-25T10:47:54;8.55;;;2.75;;
77591;SDS011;66891;46.884;17.436;2023-02-25T10:50:24;6.72;;;1.50;;
77591;SDS011;66891;46.884;17.436;2023-02-25T10:53:12;5.18;;;0.60;;
77591;SDS011;66891;46.884;17.436;2023-02-25T10:55:43;5.25;;;0.88;;
77591;SDS011;66891;46.884;17.436;2023-02-25T10:58:23;4.25;;;0.40;;
77591;SDS011;66891;46.884;17.436;2023-02-25T11:00:55;3.75;;;0.50;;
77591;SDS011;66891;46.884;17.436;2023-02-25T11:03:23;3.90;;;0.50;;
77591;SDS011;66891;46.884;17.436;2023-02-25T11:05:50;5.50;;;0.63;;
77591;SDS011;66891;46.884;17.436;2023-02-25T11:08:24;4.15;;;0.60;;
77591;SDS011;66891;46.884;17.436;2023-02-25T11:10:58;7.20;;;1.58;;
77591;SDS011;66891;46.884;17.436;2023-02-25T11:13:29;9.32;;;1.98;;
77591;SDS011;66891;46.884;17.436;2023-02-25T11:15:57;7.20;;;1.70;;
77591;SDS011;66891;46.884;17.436;2023-02-25T11:18:26;5.93;;;0.95;;
77591;SDS011;66891;46.884;17.436;2023-02-25T11:20:55;4.97;;;0.60;;
77591;SDS011;66891;46.884;17.436;2023-02-25T11:23:23;4.30;;;0.70;;
77591;SDS011;66891;46.884;17.436;2023-02-25T11:25:54;4.88;;;0.90;;
77591;SDS011;66891;46.884;17.436;2023-02-25T11:28:24;5.78;;;0.63;;
77591;SDS011;66891;46.884;17.436;2023-02-25T11:30:53;4.70;;;0.80;;
77591;SDS011;66891;46.884;17.436;2023-02-25T11:33:22;5.73;;;0.83;;
77591;SDS011;66891;46.884;17.436;2023-02-25T11:35:53;5.75;;;0.80;;
77591;SDS011;66891;46.884;17.436;2023-02-25T11:38:23;3.78;;;0.52;;
77591;SDS011;66891;46.884;17.436;2023-02-25T11:40:54;4.47;;;0.50;;
77591;SDS011;66891;46.884;17.436;2023-02-25T11:43:22;3.55;;;0.50;;
77591;SDS011;66891;46.884;17.436;2023-02-25T11:45:56;5.17;;;0.90;;
77591;SDS011;66891;46.884;17.436;2023-02-25T11:48:24;5.88;;;1.10;;
77591;SDS011;66891;46.884;17.436;2023-02-25T11:51:03;5.03;;;0.70;;
77591;SDS011;66891;46.884;17.436;2023-02-25T11:53:42;4.55;;;0.52;;
77591;SDS011;66891;46.884;17.436;2023-02-25T11:56:14;6.18;;;1.10;;
77591;SDS011;66891;46.884;17.436;2023-02-25T11:58:46;4.60;;;0.60;;
77591;SDS011;66891;46.884;17.436;2023-02-25T12:01:17;7.60;;;2.03;;
77591;SDS011;66891;46.884;17.436;2023-02-25T12:03:59;11.98;;;3.45;;
77591;SDS011;66891;46.884;17.436;2023-02-25T12:06:31;5.93;;;0.98;;
77591;SDS011;66891;46.884;17.436;2023-02-25T12:09:16;6.15;;;0.95;;
77591;SDS011;66891;46.884;17.436;2023-02-25T12:14:41;3.40;;;0.40;;
77591;SDS011;66891;46.884;17.436;2023-02-25T12:17:33;2.70;;;0.30;;
77591;SDS011;66891;46.884;17.436;2023-02-25T12:20:35;4.90;;;0.70;;
77591;SDS011;66891;46.884;17.436;2023-02-25T12:23:15;5.72;;;1.05;;
77591;SDS011;66891;46.884;17.436;2023-02-25T12:25:47;4.00;;;0.50;;
77591;SDS011;66891;46.884;17.436;2023-02-25T12:28:24;3.47;;;0.40;;
77591;SDS011;66891;46.884;17.436;2023-02-25T12:30:59;2.65;;;0.40;;
77591;SDS011;66891;46.884;17.436;2023-02-25T12:33:47;3.88;;;0.52;;
77591;SDS011;66891;46.884;17.436;2023-02-25T12:36:23;7.35;;;2.38;;
77591;SDS011;66891;46.884;17.436;2023-02-25T12:39:05;5.83;;;1.40;;
77591;SDS011;66891;46.884;17.436;2023-02-25T12:41:38;5.60;;;1.20;;
77591;SDS011;66891;46.884;17.436;2023-02-25T12:44:14;5.40;;;1.50;;
77591;SDS011;66891;46.884;17.436;2023-02-25T12:46:48;6.13;;;1.30;;
77591;SDS011;66891;46.884;17.436;2023-02-25T12:52:20;4.63;;;0.67;;
77591;SDS011;66891;46.884;17.436;2023-02-25T12:57:37;4.15;;;0.60;;
77591;SDS011;66891;46.884;17.436;2023-02-25T13:00:09;5.55;;;1.20;;
77591;SDS011;66891;46.884;17.436;2023-02-25T13:05:52;7.30;;;3.97;;
77591;SDS011;66891;46.884;17.436;2023-02-25T13:08:31;4.47;;;0.70;;
77591;SDS011;66891;46.884;17.436;2023-02-25T13:11:06;9.68;;;2.30;;
77591;SDS011;66891;46.884;17.436;2023-02-25T13:16:31;7.70;;;1.80;;
77591;SDS011;66891;46.884;17.436;2023-02-25T13:19:05;8.20;;;1.77;;
77591;SDS011;66891;46.884;17.436;2023-02-25T13:21:42;20.80;;;7.13;;
77591;SDS011;66891;46.884;17.436;2023-02-25T13:24:23;8.70;;;1.65;;
77591;SDS011;66891;46.884;17.436;2023-02-25T13:27:13;5.85;;;0.85;;
77591;SDS011;66891;46.884;17.436;2023-02-25T13:30:10;6.20;;;1.10;;
77591;SDS011;66891;46.884;17.436;2023-02-25T13:32:40;4.90;;;0.80;;
77591;SDS011;66891;46.884;17.436;2023-02-25T13:35:14;5.00;;;1.13;;
77591;SDS011;66891;46.884;17.436;2023-02-25T13:37:46;4.93;;;1.05;;
77591;SDS011;66891;46.884;17.436;2023-02-25T13:43:02;6.60;;;1.58;;
77591;SDS011;66891;46.884;17.436;2023-02-25T13:45:45;7.47;;;2.00;;
77591;SDS011;66891;46.884;17.436;2023-02-25T13:56:44;11.15;;;2.95;;
77591;SDS011;66891;46.884;17.436;2023-02-25T13:59:19;7.00;;;1.67;;
77591;SDS011;66891;46.884;17.436;2023-02-25T14:01:51;9.77;;;2.40;;
77591;SDS011;66891;46.884;17.436;2023-02-25T14:09:51;7.60;;;1.40;;
77591;SDS011;66891;46.884;17.436;2023-02-25T14:12:25;7.27;;;1.50;;
77591;SDS011;66891;46.884;17.436;2023-02-25T14:17:50;7.47;;;1.60;;
77591;SDS011;66891;46.884;17.436;2023-02-25T14:20:21;8.20;;;2.33;;
77591;SDS011;66891;46.884;17.436;2023-02-25T14:22:54;10.20;;;3.13;;
77591;SDS011;66891;46.884;17.436;2023-02-25T14:25:28;7.63;;;1.93;;
77591;SDS011;66891;46.884;17.436;2023-02-25T14:27:58;8.32;;;1.83;;
77591;SDS011;66891;46.884;17.436;2023-02-25T14:30:29;8.45;;;1.65;;
77591;SDS011;66891;46.884;17.436;2023-02-25T14:33:03;13.10;;;4.00;;
77591;SDS011;66891;46.884;17.436;2023-02-25T14:38:28;9.43;;;3.27;;
77591;SDS011;66891;46.884;17.436;2023-02-25T14:41:01;10.27;;;2.60;;
77591;SDS011;66891;46.884;17.436;2023-02-25T14:43:34;5.68;;;1.02;;
77591;SDS011;66891;46.884;17.436;2023-02-25T14:46:08;8.25;;;1.67;;
77591;SDS011;66891;46.884;17.436;2023-02-25T14:48:42;7.18;;;1.80;;
77591;SDS011;66891;46.884;17.436;2023-02-25T14:51:16;8.17;;;1.80;;
77591;SDS011;66891;46.884;17.436;2023-02-25T14:54:01;9.98;;;2.40;;
77591;SDS011;66891;46.884;17.436;2023-02-25T14:56:40;10.18;;;3.20;;
77591;SDS011;66891;46.884;17.436;2023-02-25T14:59:26;7.47;;;2.15;;
77591;SDS011;66891;46.884;17.436;2023-02-25T15:07:51;10.80;;;2.75;;
77591;SDS011;66891;46.884;17.436;2023-02-25T15:10:24;7.28;;;1.90;;
77591;SDS011;66891;46.884;17.436;2023-02-25T15:15:48;9.10;;;2.38;;
77591;SDS011;66891;46.884;17.436;2023-02-25T15:18:27;8.80;;;2.63;;
77591;SDS011;66891;46.884;17.436;2023-02-25T15:21:11;7.72;;;1.95;;
77591;SDS011;66891;46.884;17.436;2023-02-25T15:23:50;11.63;;;3.50;;
77591;SDS011;66891;46.884;17.436;2023-02-25T15:26:19;8.15;;;1.75;;
77591;SDS011;66891;46.884;17.436;2023-02-25T15:28:47;11.38;;;3.70;;
77591;SDS011;66891;46.884;17.436;2023-02-25T15:36:47;7.15;;;2.20;;
77591;SDS011;66891;46.884;17.436;2023-02-25T15:39:45;7.85;;;2.63;;
77591;SDS011;66891;46.884;17.436;2023-02-25T15:42:13;8.15;;;2.50;;